Time;durP1;ratioP1;P1;durP2;ratioP2;P2;SDS_P1;SDS_P2;PMS_P1;PMS_P2;Temp;Humidity;BMP_temperature;BMP_pressure;BME280_temperature;BME280_humidity;BME280_pressure;Samples;Min_cycle;Max_cycle;Signal;HPM_P1;HPM_P2
2023/04/06 00:02:17;;;;;;;25.90;17.40;;;;;;;;;;5039917;28;20041;-86
2023/04/06 00:04:43;;;;;;;34.35;22.05;;;;;;;;;;5040147;28;20060;-86
2023/04/06 00:07:29;;;;;;;33.10;22.10;;;;;;;;;;5041091;28;20109;-86
2023/04/06 00:09:55;;;;;;;31.02;19.02;;;;;;;;;;5039966;28;20339;-85
2023/04/06 00:12:21;;;;;;;69.45;28.88;;;;;;;;;;5040757;28;20042;-86
2023/04/06 00:14:47;;;;;;;44.08;21.55;;;;;;;;;;5040649;28;20051;-86
2023/04/06 00:17:13;;;;;;;58.70;25.70;;;;;;;;;;5040759;28;20438;-86
2023/04/06 00:19:39;;;;;;;44.88;21.90;;;;;;;;;;5041015;28;20037;-86
2023/04/06 00:22:05;;;;;;;43.65;21.85;;;;;;;;;;5039648;28;20025;-86
2023/04/06 00:24:31;;;;;;;49.38;22.63;;;;;;;;;;5039955;28;20075;-86
2023/04/06 00:26:57;;;;;;;40.00;20.25;;;;;;;;;;5040959;28;20017;-86
2023/04/06 00:29:23;;;;;;;35.88;20.90;;;;;;;;;;5040784;28;20029;-86
2023/04/06 00:31:49;;;;;;;28.52;17.83;;;;;;;;;;5040808;28;20095;-87
2023/04/06 00:34:16;;;;;;;34.47;21.70;;;;;;;;;;5040649;28;20034;-86
2023/04/06 00:37:19;;;;;;;37.15;21.42;;;;;;;;;;5040166;28;20048;-86
2023/04/06 00:39:45;;;;;;;34.65;22.35;;;;;;;;;;5040209;28;20128;-86
2023/04/06 00:42:13;;;;;;;32.42;21.40;;;;;;;;;;5040397;28;20446;-87
2023/04/06 00:44:39;;;;;;;37.85;22.33;;;;;;;;;;5040601;28;20017;-88
2023/04/06 00:47:05;;;;;;;32.45;22.35;;;;;;;;;;5040224;28;20072;-87
2023/04/06 00:49:32;;;;;;;33.58;21.80;;;;;;;;;;5039295;28;20030;-87
2023/04/06 01:01:09;;;;;;;36.90;22.38;;;;;;;;;;5040110;28;20035;-87
2023/04/06 01:03:35;;;;;;;34.05;22.17;;;;;;;;;;5039060;28;20029;-87
2023/04/06 01:06:01;;;;;;;37.95;21.30;;;;;;;;;;5039972;28;20068;-86
2023/04/06 01:08:28;;;;;;;31.92;20.63;;;;;;;;;;5038996;28;20040;-86
2023/04/06 01:10:54;;;;;;;31.20;20.00;;;;;;;;;;5039965;28;20048;-86
2023/04/06 01:13:20;;;;;;;33.05;23.08;;;;;;;;;;5039684;28;20078;-85
2023/04/06 01:15:47;;;;;;;32.17;21.80;;;;;;;;;;5039820;28;20025;-86
2023/04/06 01:18:13;;;;;;;31.73;19.42;;;;;;;;;;5039794;28;20038;-86
2023/04/06 01:20:39;;;;;;;34.15;19.75;;;;;;;;;;5039762;28;20037;-86
2023/04/06 01:23:05;;;;;;;29.17;19.42;;;;;;;;;;5039901;28;20025;-87
2023/04/06 01:25:31;;;;;;;30.00;19.02;;;;;;;;;;5039865;28;20053;-86
2023/04/06 01:27:57;;;;;;;28.73;18.90;;;;;;;;;;5038574;28;20075;-87
2023/04/06 01:30:23;;;;;;;28.17;17.85;;;;;;;;;;5038311;28;20036;-86
2023/04/06 01:32:49;;;;;;;30.08;19.45;;;;;;;;;;5039280;28;20424;-86
2023/04/06 01:35:16;;;;;;;32.35;19.83;;;;;;;;;;5038371;28;20025;-87
2023/04/06 01:37:42;;;;;;;32.10;18.58;;;;;;;;;;5039055;28;20021;-86
2023/04/06 01:40:08;;;;;;;29.40;19.15;;;;;;;;;;5039447;28;20033;-86
2023/04/06 01:42:34;;;;;;;26.48;17.92;;;;;;;;;;5039128;28;20404;-86
2023/04/06 01:45:00;;;;;;;28.98;18.65;;;;;;;;;;5038256;28;20059;-87
2023/04/06 01:47:26;;;;;;;30.15;18.63;;;;;;;;;;5037871;28;20124;-86
2023/04/06 01:49:52;;;;;;;29.08;19.25;;;;;;;;;;5039100;28;20033;-86
2023/04/06 01:52:56;;;;;;;29.27;19.00;;;;;;;;;;5038227;28;20032;-87
2023/04/06 01:55:22;;;;;;;30.35;18.48;;;;;;;;;;5038899;28;20470;-87
2023/04/06 01:57:48;;;;;;;30.30;20.25;;;;;;;;;;5039013;28;20461;-87
2023/04/06 02:00:14;;;;;;;33.95;22.08;;;;;;;;;;5038791;28;20050;-87
2023/04/06 02:02:41;;;;;;;31.52;20.40;;;;;;;;;;5037968;28;20355;-87
2023/04/06 02:05:07;;;;;;;27.73;19.95;;;;;;;;;;5037856;28;20025;-87
2023/04/06 02:07:34;;;;;;;29.13;21.52;;;;;;;;;;5038718;28;20091;-87
2023/04/06 02:10:00;;;;;;;28.45;20.13;;;;;;;;;;5037786;28;20172;-87
2023/04/06 02:12:26;;;;;;;32.53;19.55;;;;;;;;;;5037622;28;20049;-87
2023/04/06 02:14:52;;;;;;;32.97;20.52;;;;;;;;;;5038888;28;20427;-87
2023/04/06 02:17:18;;;;;;;27.65;18.92;;;;;;;;;;5038601;28;20033;-87
2023/04/06 02:19:44;;;;;;;26.08;18.15;;;;;;;;;;5038572;28;20021;-86
2023/04/06 02:25:14;;;;;;;27.63;19.35;;;;;;;;;;5038710;28;20072;-87
2023/04/06 02:27:40;;;;;;;28.23;18.38;;;;;;;;;;5038505;28;20017;-87
2023/04/06 02:30:06;;;;;;;31.98;20.58;;;;;;;;;;5038109;28;20048;-87
2023/04/06 02:32:32;;;;;;;26.23;18.13;;;;;;;;;;5037359;28;20053;-87
2023/04/06 02:34:58;;;;;;;25.75;18.13;;;;;;;;;;5038565;28;20033;-87
2023/04/06 02:37:25;;;;;;;32.95;17.98;;;;;;;;;;5038162;28;20025;-87
2023/04/06 02:39:51;;;;;;;24.60;17.42;;;;;;;;;;5038079;28;20033;-87
2023/04/06 02:42:17;;;;;;;31.05;16.92;;;;;;;;;;5038245;28;20017;-86
2023/04/06 02:44:43;;;;;;;27.48;17.65;;;;;;;;;;5038447;28;20316;-86
2023/04/06 02:47:09;;;;;;;26.60;17.00;;;;;;;;;;5038082;28;20022;-87
2023/04/06 02:49:35;;;;;;;24.48;17.17;;;;;;;;;;5038236;28;20048;-87
2023/04/06 02:58:09;;;;;;;29.55;17.48;;;;;;;;;;5037787;28;20076;-87
2023/04/06 03:00:35;;;;;;;30.88;17.25;;;;;;;;;;5038187;28;20029;-86
2023/04/06 03:03:02;;;;;;;24.50;16.27;;;;;;;;;;5036082;28;20125;-87
2023/04/06 03:05:28;;;;;;;27.63;16.00;;;;;;;;;;5036828;28;20332;-86
2023/04/06 03:11:33;;;;;;;27.77;16.52;;;;;;;;;;5038026;28;20067;-86
2023/04/06 03:13:59;;;;;;;25.80;15.32;;;;;;;;;;5037630;28;20112;-86
2023/04/06 03:16:25;;;;;;;21.98;14.27;;;;;;;;;;5037901;28;20029;-84
2023/04/06 03:18:51;;;;;;;26.70;15.88;;;;;;;;;;5036605;28;20037;-87
2023/04/06 03:21:19;;;;;;;25.30;15.55;;;;;;;;;;5037527;28;20018;-87
2023/04/06 03:23:45;;;;;;;21.25;14.73;;;;;;;;;;5037493;28;20029;-86
2023/04/06 03:26:11;;;;;;;25.40;15.20;;;;;;;;;;5037585;28;20033;-87
2023/04/06 03:28:37;;;;;;;27.75;14.52;;;;;;;;;;5036505;28;20371;-87
2023/04/06 03:31:03;;;;;;;24.40;14.35;;;;;;;;;;5029790;28;20407;-87
2023/04/06 03:33:30;;;;;;;21.73;13.65;;;;;;;;;;5033674;28;20034;-87
2023/04/06 03:35:56;;;;;;;20.35;13.90;;;;;;;;;;5036243;28;20442;-86
2023/04/06 03:38:22;;;;;;;20.20;13.40;;;;;;;;;;5036872;28;20044;-86
2023/04/06 03:40:48;;;;;;;24.67;14.07;;;;;;;;;;5037215;28;20412;-86
2023/04/06 03:43:14;;;;;;;22.30;13.82;;;;;;;;;;5037309;28;20061;-86
2023/04/06 03:45:40;;;;;;;26.20;13.48;;;;;;;;;;5037852;28;20120;-92
2023/04/06 03:48:06;;;;;;;25.35;14.05;;;;;;;;;;5037236;28;20431;-90
2023/04/06 03:50:32;;;;;;;29.63;14.23;;;;;;;;;;5037163;28;20029;-84
2023/04/06 03:52:58;;;;;;;23.35;13.68;;;;;;;;;;5037311;28;20023;-84
2023/04/06 03:55:24;;;;;;;27.30;13.68;;;;;;;;;;5036302;28;20033;-84
2023/04/06 03:57:50;;;;;;;26.80;15.50;;;;;;;;;;5036955;28;20026;-84
2023/04/06 04:00:16;;;;;;;28.40;15.13;;;;;;;;;;5037023;28;20022;-84
2023/04/06 04:02:42;;;;;;;32.38;21.42;;;;;;;;;;5037284;28;20041;-84
2023/04/06 04:05:09;;;;;;;43.75;30.83;;;;;;;;;;5037044;28;20025;-83
2023/04/06 04:07:35;;;;;;;42.03;29.63;;;;;;;;;;5036752;28;20021;-84
2023/04/06 04:10:01;;;;;;;45.45;31.13;;;;;;;;;;5037147;28;20271;-84
2023/04/06 04:12:27;;;;;;;49.17;33.05;;;;;;;;;;5036853;28;20042;-84
2023/04/06 04:14:53;;;;;;;41.58;28.75;;;;;;;;;;5038320;28;20029;-84
2023/04/06 04:17:19;;;;;;;32.28;22.08;;;;;;;;;;5040827;28;20037;-83
2023/04/06 04:19:45;;;;;;;27.73;16.38;;;;;;;;;;5040626;28;20029;-84
2023/04/06 04:22:11;;;;;;;27.02;15.38;;;;;;;;;;5040894;28;20033;-84
2023/04/06 04:24:37;;;;;;;24.13;15.20;;;;;;;;;;5040563;28;20021;-84
2023/04/06 04:27:04;;;;;;;27.60;16.60;;;;;;;;;;5039365;28;20435;-84
2023/04/06 04:29:30;;;;;;;26.95;16.70;;;;;;;;;;5040326;28;20434;-84
2023/04/06 04:31:56;;;;;;;27.13;16.13;;;;;;;;;;5039222;28;20033;-84
2023/04/06 04:34:25;;;;;;;29.63;16.15;;;;;;;;;;5039587;28;20064;-84
2023/04/06 04:36:52;;;;;;;28.50;15.27;;;;;;;;;;5039041;28;20040;-84
2023/04/06 04:39:18;;;;;;;26.63;14.15;;;;;;;;;;5039795;28;20662;-84
2023/04/06 04:41:44;;;;;;;23.30;13.95;;;;;;;;;;5039865;28;20030;-84
2023/04/06 04:44:10;;;;;;;28.02;15.05;;;;;;;;;;5040011;28;20017;-83
2023/04/06 04:46:36;;;;;;;27.30;14.43;;;;;;;;;;5039193;28;20066;-84
2023/04/06 04:49:02;;;;;;;28.55;15.70;;;;;;;;;;5040231;28;20034;-84
2023/04/06 04:51:28;;;;;;;26.60;15.32;;;;;;;;;;5038928;28;20108;-84
2023/04/06 04:53:54;;;;;;;24.00;15.30;;;;;;;;;;5039919;28;20096;-84
2023/04/06 04:56:21;;;;;;;24.35;14.48;;;;;;;;;;5039930;28;20531;-84
2023/04/06 04:58:47;;;;;;;24.02;13.88;;;;;;;;;;5038604;28;20032;-84
2023/04/06 05:01:14;;;;;;;22.55;12.77;;;;;;;;;;5039747;28;20029;-84
2023/04/06 05:03:41;;;;;;;22.05;14.07;;;;;;;;;;5039229;28;20036;-84
2023/04/06 05:06:07;;;;;;;27.85;15.23;;;;;;;;;;5039883;28;20028;-84
2023/04/06 05:08:34;;;;;;;30.20;16.42;;;;;;;;;;5039981;28;20036;-84
2023/04/06 05:11:00;;;;;;;28.88;15.95;;;;;;;;;;5039662;28;20104;-84
2023/04/06 05:13:26;;;;;;;29.35;15.88;;;;;;;;;;5039416;28;20045;-84
2023/04/06 05:15:52;;;;;;;25.73;16.52;;;;;;;;;;5038550;28;20064;-84
2023/04/06 05:18:18;;;;;;;26.33;15.60;;;;;;;;;;5039486;28;20033;-85
2023/04/06 05:20:44;;;;;;;25.15;14.60;;;;;;;;;;5039675;28;20033;-84
2023/04/06 05:23:10;;;;;;;33.10;18.40;;;;;;;;;;5039643;28;20026;-84
2023/04/06 05:25:36;;;;;;;35.58;19.80;;;;;;;;;;5037380;28;20021;-84
2023/04/06 05:28:02;;;;;;;42.80;19.27;;;;;;;;;;5038417;28;20021;-84
2023/04/06 05:30:28;;;;;;;34.90;16.77;;;;;;;;;;5038430;28;20116;-84
2023/04/06 05:32:54;;;;;;;44.92;17.10;;;;;;;;;;5038087;28;20408;-82
2023/04/06 05:35:20;;;;;;;36.83;14.95;;;;;;;;;;5039384;28;20029;-84
2023/04/06 05:38:11;;;;;;;45.15;16.75;;;;;;;;;;5038966;28;20117;-84
2023/04/06 05:40:38;;;;;;;40.28;16.38;;;;;;;;;;5038999;28;20117;-84
2023/04/06 05:43:04;;;;;;;30.20;13.75;;;;;;;;;;5039167;28;20088;-84
2023/04/06 05:45:30;;;;;;;32.85;13.95;;;;;;;;;;5039017;28;20412;-85
2023/04/06 05:47:56;;;;;;;22.90;11.57;;;;;;;;;;5039039;28;20026;-84
2023/04/06 05:50:22;;;;;;;23.75;12.63;;;;;;;;;;5038811;28;20056;-84
2023/04/06 05:52:49;;;;;;;21.10;10.77;;;;;;;;;;5038829;28;20033;-83
2023/04/06 05:55:15;;;;;;;22.55;10.98;;;;;;;;;;5037717;28;20164;-84
2023/04/06 05:57:41;;;;;;;20.27;10.50;;;;;;;;;;5037965;28;20076;-84
2023/04/06 06:00:09;;;;;;;30.75;13.15;;;;;;;;;;5037610;28;20064;-84
2023/04/06 06:02:36;;;;;;;22.30;11.15;;;;;;;;;;5038729;28;20409;-84
2023/04/06 06:05:02;;;;;;;26.80;12.48;;;;;;;;;;5037563;28;20438;-84
2023/04/06 06:07:28;;;;;;;22.00;11.65;;;;;;;;;;5038137;28;20025;-84
2023/04/06 06:09:57;;;;;;;20.13;10.77;;;;;;;;;;5038417;28;20057;-84
2023/04/06 06:12:23;;;;;;;23.50;11.88;;;;;;;;;;5038103;28;20072;-84
2023/04/06 06:14:49;;;;;;;21.80;11.38;;;;;;;;;;5038662;28;20315;-83
2023/04/06 06:17:15;;;;;;;21.85;10.80;;;;;;;;;;5038459;28;20025;-84
2023/04/06 06:19:41;;;;;;;22.70;11.40;;;;;;;;;;5038310;28;20033;-83
2023/04/06 06:22:07;;;;;;;21.67;11.63;;;;;;;;;;5038205;28;20032;-83
2023/04/06 06:24:33;;;;;;;22.75;11.45;;;;;;;;;;5037153;28;20022;-83
2023/04/06 06:27:00;;;;;;;23.55;10.90;;;;;;;;;;5038030;28;20017;-83
2023/04/06 06:29:26;;;;;;;21.45;10.55;;;;;;;;;;5037005;28;20080;-83
2023/04/06 06:31:52;;;;;;;20.63;10.77;;;;;;;;;;5037978;28;20029;-83
2023/04/06 06:34:18;;;;;;;22.52;10.48;;;;;;;;;;5037908;28;20033;-84
2023/04/06 06:36:44;;;;;;;24.80;11.60;;;;;;;;;;5037997;28;20033;-84
2023/04/06 06:39:10;;;;;;;20.83;11.73;;;;;;;;;;5038183;28;20065;-83
2023/04/06 06:41:36;;;;;;;20.13;11.20;;;;;;;;;;5037961;28;20021;-83
2023/04/06 06:44:02;;;;;;;22.30;10.48;;;;;;;;;;5037045;28;20036;-83
2023/04/06 06:46:29;;;;;;;21.73;10.82;;;;;;;;;;5037695;28;20014;-83
2023/04/06 06:48:55;;;;;;;20.10;10.30;;;;;;;;;;5037878;28;20072;-83
2023/04/06 06:51:21;;;;;;;21.58;10.55;;;;;;;;;;5037263;28;20043;-84
2023/04/06 06:53:48;;;;;;;21.15;11.20;;;;;;;;;;5038000;28;20109;-84
2023/04/06 06:56:14;;;;;;;21.80;10.55;;;;;;;;;;5037467;28;20029;-83
2023/04/06 06:58:40;;;;;;;17.85;9.55;;;;;;;;;;5037535;28;20034;-83
2023/04/06 07:01:06;;;;;;;15.07;9.07;;;;;;;;;;5037830;28;20022;-83
2023/04/06 07:03:32;;;;;;;21.60;11.85;;;;;;;;;;5037665;28;20368;-84
2023/04/06 07:05:58;;;;;;;21.92;9.05;;;;;;;;;;5037495;28;20403;-84
2023/04/06 07:08:25;;;;;;;18.27;9.63;;;;;;;;;;5037137;28;20412;-83
2023/04/06 07:10:57;;;;;;;15.48;8.18;;;;;;;;;;5037297;28;20029;-82
2023/04/06 07:13:23;;;;;;;;;;;;;;;;;;5036699;28;20057;-84
2023/04/06 07:15:50;;;;;;;10.93;7.10;;;;;;;;;;5037547;28;19912;-84
2023/04/06 07:18:16;;;;;;;13.02;7.65;;;;;;;;;;5036470;28;20036;-83
2023/04/06 07:20:42;;;;;;;11.23;7.22;;;;;;;;;;5037214;28;20403;-84
2023/04/06 07:23:08;;;;;;;15.20;9.25;;;;;;;;;;5036271;28;20030;-83
2023/04/06 07:25:35;;;;;;;14.25;7.50;;;;;;;;;;5037255;28;20316;-83
2023/04/06 07:28:01;;;;;;;12.05;8.27;;;;;;;;;;5037202;28;20083;-83
2023/04/06 07:30:28;;;;;;;10.38;7.22;;;;;;;;;;5037253;28;20072;-84
2023/04/06 07:32:55;;;;;;;11.50;7.15;;;;;;;;;;5036167;28;20024;-83
2023/04/06 07:35:21;;;;;;;13.43;7.15;;;;;;;;;;5037175;28;20036;-83
2023/04/06 07:37:47;;;;;;;11.55;7.82;;;;;;;;;;5037113;28;20037;-83
2023/04/06 07:40:13;;;;;;;15.30;7.47;;;;;;;;;;5037028;28;20036;-83
2023/04/06 07:42:39;;;;;;;18.95;7.88;;;;;;;;;;5036024;28;20029;-84
2023/04/06 07:45:06;;;;;;;11.52;7.57;;;;;;;;;;5036869;28;20021;-83
2023/04/06 07:47:32;;;;;;;12.80;8.07;;;;;;;;;;5037278;28;20026;-83
2023/04/06 07:49:58;;;;;;;18.48;9.23;;;;;;;;;;5039746;28;20516;-83
2023/04/06 07:52:25;;;;;;;15.25;8.60;;;;;;;;;;5039693;28;20068;-83
2023/04/06 07:54:51;;;;;;;17.67;9.30;;;;;;;;;;5040819;28;20031;-83
2023/04/06 07:57:17;;;;;;;16.17;9.35;;;;;;;;;;5039663;28;20057;-83
2023/04/06 07:59:43;;;;;;;14.65;9.60;;;;;;;;;;5041086;28;20037;-83
2023/04/06 08:02:09;;;;;;;19.17;9.57;;;;;;;;;;5039780;28;20021;-83
2023/04/06 08:04:35;;;;;;;14.93;8.73;;;;;;;;;;5040894;28;20101;-83
2023/04/06 08:07:01;;;;;;;15.70;9.05;;;;;;;;;;5040744;28;20067;-84
2023/04/06 08:09:28;;;;;;;17.42;9.60;;;;;;;;;;5040555;28;20034;-83
2023/04/06 08:11:54;;;;;;;20.45;9.52;;;;;;;;;;5039637;28;20034;-83
2023/04/06 08:14:20;;;;;;;15.63;9.32;;;;;;;;;;5039505;28;20378;-83
2023/04/06 08:16:46;;;;;;;13.68;8.82;;;;;;;;;;5040466;28;20017;-83
2023/04/06 08:19:12;;;;;;;17.45;9.35;;;;;;;;;;5039329;28;20036;-83
2023/04/06 08:21:42;;;;;;;18.02;9.23;;;;;;;;;;5040413;28;20400;-83
2023/04/06 08:24:08;;;;;;;16.70;9.50;;;;;;;;;;5039373;28;20037;-83
2023/04/06 08:26:34;;;;;;;16.92;9.05;;;;;;;;;;5040433;28;20022;-83
2023/04/06 08:29:00;;;;;;;16.23;9.32;;;;;;;;;;5039345;28;20033;-83
2023/04/06 08:31:27;;;;;;;18.63;10.23;;;;;;;;;;5040198;28;20029;-83
2023/04/06 08:33:53;;;;;;;15.35;9.75;;;;;;;;;;5040357;28;20317;-83
2023/04/06 08:36:22;;;;;;;18.90;9.15;;;;;;;;;;5040246;28;20072;-83
2023/04/06 08:38:49;;;;;;;14.85;9.35;;;;;;;;;;5040101;28;20034;-83
2023/04/06 08:41:17;;;;;;;15.77;9.60;;;;;;;;;;5038956;28;20025;-83
2023/04/06 08:43:44;;;;;;;18.88;10.35;;;;;;;;;;5040358;28;20033;-83
2023/04/06 08:46:11;;;;;;;15.95;9.55;;;;;;;;;;5039850;28;20423;-83
2023/04/06 08:48:39;;;;;;;17.60;10.18;;;;;;;;;;5039849;28;20033;-82
2023/04/06 08:51:06;;;;;;;17.10;10.38;;;;;;;;;;5039659;28;20026;-82
2023/04/06 08:53:32;;;;;;;22.92;10.73;;;;;;;;;;5039736;28;20083;-83
2023/04/06 08:55:58;;;;;;;15.85;10.05;;;;;;;;;;5039786;28;20033;-83
2023/04/06 08:58:25;;;;;;;15.82;9.85;;;;;;;;;;5039723;28;20025;-82
2023/04/06 09:00:52;;;;;;;20.55;10.45;;;;;;;;;;5038331;28;20030;-83
2023/04/06 09:03:19;;;;;;;18.35;10.55;;;;;;;;;;5039693;28;20021;-83
2023/04/06 09:05:46;;;;;;;18.38;10.45;;;;;;;;;;5038492;28;20021;-83
2023/04/06 09:08:12;;;;;;;18.35;10.60;;;;;;;;;;5038738;28;20080;-83
2023/04/06 09:10:41;;;;;;;19.95;11.27;;;;;;;;;;5038649;28;20028;-83
2023/04/06 09:13:08;;;;;;;18.00;8.82;;;;;;;;;;5039331;28;20124;-83
2023/04/06 09:15:34;;;;;;;17.52;8.18;;;;;;;;;;5038310;28;20412;-82
2023/04/06 09:18:00;;;;;;;13.30;7.45;;;;;;;;;;5039235;28;20420;-82
2023/04/06 09:20:27;;;;;;;12.48;7.78;;;;;;;;;;5038342;28;20033;-82
2023/04/06 09:22:54;;;;;;;16.15;9.05;;;;;;;;;;5039194;28;20029;-82
2023/04/06 09:25:21;;;;;;;14.73;9.05;;;;;;;;;;5038966;28;20037;-83
2023/04/06 09:27:47;;;;;;;13.68;8.23;;;;;;;;;;5039139;28;20432;-82
2023/04/06 09:30:15;;;;;;;18.40;9.40;;;;;;;;;;5039037;28;20032;-82
2023/04/06 09:32:46;;;;;;;15.40;8.20;;;;;;;;;;5038817;28;20032;-83
2023/04/06 09:35:13;;;;;;;13.13;8.00;;;;;;;;;;5037783;28;20025;-81
2023/04/06 09:37:39;;;;;;;12.15;7.82;;;;;;;;;;5037895;28;20024;-82
2023/04/06 09:40:07;;;;;;;11.77;7.93;;;;;;;;;;5038790;28;20058;-82
2023/04/06 09:42:33;;;;;;;17.38;8.30;;;;;;;;;;5038914;28;20026;-82
2023/04/06 09:44:59;;;;;;;11.00;7.00;;;;;;;;;;5038406;28;20443;-82
2023/04/06 09:47:26;;;;;;;12.32;7.25;;;;;;;;;;5038605;28;20025;-82
2023/04/06 09:49:56;;;;;;;12.13;7.80;;;;;;;;;;5037823;28;20040;-82
2023/04/06 09:52:24;;;;;;;12.82;7.60;;;;;;;;;;5037500;28;20021;-82
2023/04/06 09:57:58;;;;;;;10.88;7.43;;;;;;;;;;5038789;28;20485;-82
2023/04/06 10:00:26;;;;;;;15.52;7.80;;;;;;;;;;5038623;28;20059;-82
2023/04/06 10:02:58;;;;;;;15.07;8.55;;;;;;;;;;5038739;28;20029;-82
2023/04/06 10:05:30;;;;;;;10.23;6.85;;;;;;;;;;5038182;28;20369;-82
2023/04/06 10:07:58;;;;;;;11.63;7.05;;;;;;;;;;5038353;28;20044;-82
2023/04/06 10:10:24;;;;;;;11.48;7.45;;;;;;;;;;5038265;28;20020;-82
2023/04/06 10:12:50;;;;;;;17.38;8.57;;;;;;;;;;5037757;28;20034;-83
2023/04/06 10:15:17;;;;;;;14.45;7.90;;;;;;;;;;5038062;28;20431;-82
2023/04/06 10:17:43;;;;;;;15.25;8.73;;;;;;;;;;5038146;28;20014;-82
2023/04/06 10:20:11;;;;;;;15.52;8.45;;;;;;;;;;5037831;28;20030;-82
2023/04/06 10:22:42;;;;;;;17.38;9.68;;;;;;;;;;5038324;28;20129;-84
2023/04/06 10:25:27;;;;;;;14.52;8.85;;;;;;;;;;5038197;28;20028;-84
2023/04/06 10:27:59;;;;;;;13.95;9.55;;;;;;;;;;5038506;28;20136;-84
2023/04/06 10:30:25;;;;;;;15.00;8.32;;;;;;;;;;5038045;28;20474;-83
2023/04/06 10:32:51;;;;;;;14.05;8.70;;;;;;;;;;5038222;28;20029;-84
2023/04/06 10:35:18;;;;;;;16.42;9.20;;;;;;;;;;5038060;28;20029;-85
2023/04/06 10:37:54;;;;;;;17.35;10.07;;;;;;;;;;5037959;28;20029;-84
2023/04/06 10:40:57;;;;;;;14.15;9.23;;;;;;;;;;5037886;28;20438;-84
2023/04/06 10:43:23;;;;;;;16.52;9.52;;;;;;;;;;5037140;28;20029;-84
2023/04/06 10:45:56;;;;;;;16.33;9.55;;;;;;;;;;5037932;28;20026;-84
2023/04/06 10:48:23;;;;;;;20.27;10.55;;;;;;;;;;5038150;28;20097;-84
2023/04/06 10:50:50;;;;;;;15.98;10.80;;;;;;;;;;5036806;28;20017;-84
2023/04/06 10:53:23;;;;;;;18.65;10.52;;;;;;;;;;5037246;28;20328;-85
2023/04/06 10:58:55;;;;;;;17.38;11.30;;;;;;;;;;5038022;28;20041;-85
2023/04/06 11:01:22;;;;;;;18.02;11.20;;;;;;;;;;5038074;28;20029;-85
2023/04/06 11:03:54;;;;;;;17.52;10.63;;;;;;;;;;5038045;28;20045;-86
2023/04/06 11:06:26;;;;;;;17.38;10.63;;;;;;;;;;5037645;28;20028;-85
2023/04/06 11:08:53;;;;;;;19.23;11.13;;;;;;;;;;5037754;28;20124;-84
2023/04/06 11:11:19;;;;;;;19.00;9.95;;;;;;;;;;5036629;28;20076;-85
2023/04/06 11:13:52;;;;;;;15.35;9.55;;;;;;;;;;5036508;28;20076;-85
2023/04/06 11:16:20;;;;;;;22.30;13.38;;;;;;;;;;5037685;28;20416;-85
2023/04/06 11:18:58;;;;;;;22.48;12.77;;;;;;;;;;5036633;28;20363;-86
2023/04/06 11:21:33;;;;;;;27.83;14.00;;;;;;;;;;5036528;28;20076;-85
2023/04/06 11:30:07;;;;;;;23.00;13.68;;;;;;;;;;5037506;28;20071;-85
2023/04/06 11:32:41;;;;;;;23.23;13.90;;;;;;;;;;5036435;28;20025;-85
2023/04/06 11:35:07;;;;;;;26.55;15.68;;;;;;;;;;5037578;28;20470;-85
2023/04/06 11:37:33;;;;;;;19.55;11.50;;;;;;;;;;5036430;28;20036;-85
2023/04/06 11:39:59;;;;;;;20.67;12.07;;;;;;;;;;5037641;28;20045;-85
2023/04/06 11:42:26;;;;;;;21.05;12.52;;;;;;;;;;5036395;28;20025;-86
2023/04/06 11:44:56;;;;;;;20.75;13.23;;;;;;;;;;5037438;28;20021;-84
2023/04/06 11:47:30;;;;;;;18.67;11.43;;;;;;;;;;5037591;28;20041;-85
2023/04/06 11:49:58;;;;;;;19.63;11.40;;;;;;;;;;5036505;28;20048;-85
2023/04/06 11:52:25;;;;;;;15.77;9.68;;;;;;;;;;5037489;28;20025;-85
2023/04/06 11:54:53;;;;;;;17.73;10.30;;;;;;;;;;5037481;28;20037;-85
2023/04/06 11:57:20;;;;;;;18.60;12.18;;;;;;;;;;5037336;28;20033;-85
2023/04/06 11:59:46;;;;;;;17.52;10.73;;;;;;;;;;5036171;28;20058;-84
2023/04/06 12:02:12;;;;;;;15.60;10.18;;;;;;;;;;5037120;28;20026;-85
2023/04/06 12:04:38;;;;;;;12.35;8.77;;;;;;;;;;5037476;28;20028;-85
2023/04/06 12:07:05;;;;;;;18.92;10.07;;;;;;;;;;5037067;28;20025;-85
2023/04/06 12:09:31;;;;;;;15.52;10.50;;;;;;;;;;5037189;28;20069;-85
2023/04/06 12:11:57;;;;;;;18.13;10.82;;;;;;;;;;5036018;28;20026;-84
2023/04/06 12:14:24;;;;;;;18.45;12.15;;;;;;;;;;5037016;28;20043;-85
2023/04/06 12:16:50;;;;;;;24.95;13.63;;;;;;;;;;5037023;28;20029;-84
2023/04/06 12:19:16;;;;;;;19.70;11.32;;;;;;;;;;5037048;28;20422;-86
2023/04/06 12:21:42;;;;;;;21.48;12.10;;;;;;;;;;5035431;28;20033;-85
2023/04/06 12:24:08;;;;;;;21.48;13.43;;;;;;;;;;5035933;28;20363;-85
2023/04/06 12:26:34;;;;;;;31.33;13.70;;;;;;;;;;5036707;28;20018;-84
2023/04/06 12:29:07;;;;;;;17.92;12.32;;;;;;;;;;5037102;28;20037;-84
2023/04/06 12:31:35;;;;;;;21.00;13.27;;;;;;;;;;5036888;28;20040;-84
2023/04/06 12:34:02;;;;;;;17.48;11.25;;;;;;;;;;5036153;28;20441;-84
2023/04/06 12:36:28;;;;;;;16.48;10.75;;;;;;;;;;5040159;28;20155;-84
2023/04/06 12:39:13;;;;;;;18.02;11.40;;;;;;;;;;5040432;28;20041;-84
2023/04/06 12:41:41;;;;;;;17.05;9.77;;;;;;;;;;5040170;28;20021;-84
2023/04/06 12:44:07;;;;;;;15.40;9.65;;;;;;;;;;5040390;28;20025;-84
2023/04/06 12:46:33;;;;;;;14.90;9.63;;;;;;;;;;5040314;28;20025;-84
2023/04/06 12:48:59;;;;;;;16.00;10.25;;;;;;;;;;5040208;28;20032;-84
2023/04/06 12:51:28;;;;;;;24.50;14.10;;;;;;;;;;5039031;28;20031;-83
2023/04/06 12:53:54;;;;;;;20.15;12.05;;;;;;;;;;5040502;28;20029;-84
2023/04/06 12:56:23;;;;;;;21.25;12.35;;;;;;;;;;5038954;28;20057;-84
2023/04/06 12:58:51;;;;;;;23.55;12.57;;;;;;;;;;5040229;28;20032;-83
2023/04/06 13:01:17;;;;;;;20.60;11.95;;;;;;;;;;5039222;28;20022;-83
2023/04/06 13:03:43;;;;;;;14.02;9.07;;;;;;;;;;5039585;28;20037;-83
2023/04/06 13:06:10;;;;;;;22.02;13.07;;;;;;;;;;5038682;28;20022;-83
2023/04/06 13:08:39;;;;;;;20.25;13.05;;;;;;;;;;5039715;28;20034;-83
2023/04/06 13:11:09;;;;;;;18.52;10.68;;;;;;;;;;5038887;28;20037;-83
2023/04/06 13:13:35;;;;;;;23.92;14.02;;;;;;;;;;5039297;28;20041;-83
2023/04/06 13:16:03;;;;;;;19.13;11.63;;;;;;;;;;5038356;28;20029;-83
2023/04/06 13:18:29;;;;;;;22.40;11.07;;;;;;;;;;5039248;28;20359;-83
2023/04/06 13:20:56;;;;;;;20.95;11.95;;;;;;;;;;5039401;28;20021;-83
2023/04/06 13:23:22;;;;;;;17.15;10.10;;;;;;;;;;5039289;28;20420;-83
2023/04/06 13:26:07;;;;;;;18.88;9.77;;;;;;;;;;5039252;28;20029;-83
2023/04/06 13:28:34;;;;;;;15.48;8.77;;;;;;;;;;5039398;28;20040;-83
2023/04/06 13:31:03;;;;;;;14.20;8.75;;;;;;;;;;5038033;28;20029;-84
2023/04/06 13:33:29;;;;;;;11.85;8.55;;;;;;;;;;5038038;28;20412;-83
2023/04/06 13:35:56;;;;;;;15.48;8.73;;;;;;;;;;5038983;28;20044;-83
2023/04/06 13:38:24;;;;;;;15.32;8.63;;;;;;;;;;5039213;28;20036;-83
2023/04/06 13:40:50;;;;;;;11.93;7.70;;;;;;;;;;5038911;28;20042;-83
2023/04/06 13:43:19;;;;;;;16.23;8.38;;;;;;;;;;5037938;28;20061;-83
2023/04/06 13:45:49;;;;;;;13.48;8.35;;;;;;;;;;5038968;28;20033;-83
2023/04/06 13:48:15;;;;;;;16.17;9.25;;;;;;;;;;5038344;28;20382;-83
2023/04/06 13:50:41;;;;;;;11.98;8.00;;;;;;;;;;5037711;28;20029;-84
2023/04/06 13:53:08;;;;;;;17.15;11.38;;;;;;;;;;5037874;28;20092;-84
2023/04/06 13:55:34;;;;;;;12.48;8.32;;;;;;;;;;5038781;28;20021;-84
2023/04/06 13:58:00;;;;;;;15.35;8.65;;;;;;;;;;5037743;28;20025;-84
2023/04/06 14:00:26;;;;;;;15.85;9.27;;;;;;;;;;5037590;28;20025;-84
2023/04/06 14:02:54;;;;;;;13.98;8.70;;;;;;;;;;5038640;28;20108;-84
2023/04/06 14:05:20;;;;;;;14.80;8.63;;;;;;;;;;5037592;28;20033;-84
2023/04/06 14:07:46;;;;;;;11.55;7.85;;;;;;;;;;5037305;28;20031;-84
2023/04/06 14:10:14;;;;;;;15.18;8.20;;;;;;;;;;5037596;28;20041;-84
2023/04/06 14:12:46;;;;;;;15.52;8.60;;;;;;;;;;5038164;28;20045;-84
2023/04/06 14:15:12;;;;;;;;;;;;;;;;;;5038774;28;20454;-84
2023/04/06 14:17:38;;;;;;;28.10;12.65;;;;;;;;;;5037208;28;19905;-84
2023/04/06 14:20:06;;;;;;;15.05;9.68;;;;;;;;;;5037215;28;20090;-84
2023/04/06 14:22:32;;;;;;;22.67;11.52;;;;;;;;;;5038411;28;20028;-84
2023/04/06 14:25:17;;;;;;;19.73;10.75;;;;;;;;;;5038184;28;20025;-85
2023/04/06 14:27:44;;;;;;;28.02;16.02;;;;;;;;;;5038193;28;20045;-84
2023/04/06 14:30:10;;;;;;;43.35;15.40;;;;;;;;;;5038110;28;20040;-84
2023/04/06 14:32:37;;;;;;;78.63;25.83;;;;;;;;;;5037106;28;20026;-84
2023/04/06 14:35:03;;;;;;;72.15;23.02;;;;;;;;;;5038282;28;20113;-85
2023/04/06 14:37:30;;;;;;;32.75;14.65;;;;;;;;;;5037018;28;20029;-84
2023/04/06 14:39:56;;;;;;;75.13;20.25;;;;;;;;;;5038094;28;20032;-84
2023/04/06 14:42:22;;;;;;;25.08;10.88;;;;;;;;;;5036993;28;20029;-84
2023/04/06 14:44:48;;;;;;;26.50;11.95;;;;;;;;;;5038363;28;20096;-84
2023/04/06 14:47:19;;;;;;;20.13;11.82;;;;;;;;;;5036776;28;20067;-84
2023/04/06 14:49:47;;;;;;;21.80;10.23;;;;;;;;;;5036849;28;20049;-83
2023/04/06 14:52:13;;;;;;;19.52;11.77;;;;;;;;;;5037542;28;20033;-84
2023/04/06 14:54:39;;;;;;;23.95;13.35;;;;;;;;;;5038303;28;20029;-89
2023/04/06 14:57:05;;;;;;;19.05;10.25;;;;;;;;;;5038311;28;20033;-90